Time;durP1;ratioP1;P1;durP2;ratioP2;P2;SDS_P1;SDS_P2;PMS_P1;PMS_P2;Temp;Humidity;BMP_temperature;BMP_pressure;BME280_temperature;BME280_humidity;BME280_pressure;Samples;Min_cycle;Max_cycle;Signal;HPM_P1;HPM_P2
2023/05/13 00:01:27;;;;;;;2.53;2.23;;;;;;;9.69;nan;60722.75;4976265;28;20684;-68
2023/05/13 00:03:53;;;;;;;3.75;2.42;;;;;;;9.70;nan;60737.19;4976126;28;20181;-72
2023/05/13 00:06:18;;;;;;;2.47;2.17;;;;;;;9.33;nan;60685.41;4976187;28;20204;-70
2023/05/13 00:08:44;;;;;;;3.10;2.40;;;;;;;9.56;nan;60698.50;4976051;28;20524;-70
2023/05/13 00:11:09;;;;;;;3.73;2.33;;;;;;;9.58;nan;60675.25;4976216;28;20236;-69
2023/05/13 00:13:35;;;;;;;4.77;2.60;;;;;;;9.47;nan;60662.91;4976235;28;20188;-69
2023/05/13 00:16:01;;;;;;;5.13;2.60;;;;;;;9.47;nan;60675.09;4976042;28;20234;-70
2023/05/13 00:18:27;;;;;;;3.87;2.43;;;;;;;9.33;nan;60667.56;4976305;28;20182;-70
2023/05/13 00:20:52;;;;;;;2.67;2.00;;;;;;;9.36;nan;60604.09;4974672;28;20188;-70
2023/05/13 00:23:17;;;;;;;3.50;2.53;;;;;;;9.45;nan;60668.28;4975883;28;20708;-70
2023/05/13 00:25:43;;;;;;;3.30;2.30;;;;;;;9.34;nan;60653.38;4975914;28;20201;-70
2023/05/13 00:28:09;;;;;;;2.57;2.10;;;;;;;9.37;nan;60702.63;4975764;28;20561;-69
2023/05/13 00:30:35;;;;;;;6.07;2.53;;;;;;;9.22;nan;60655.19;4975657;28;20173;-71
2023/05/13 00:33:01;;;;;;;4.17;2.30;;;;;;;9.02;nan;60821.22;4975885;28;20181;-70
2023/05/13 00:35:26;;;;;;;3.13;2.37;;;;;;;9.25;nan;60671.88;4977675;28;20574;-70
2023/05/13 00:37:52;;;;;;;3.00;2.17;;;;;;;9.46;nan;60733.16;4975279;28;20738;-70
2023/05/13 00:40:23;;;;;;;3.53;2.40;;;;;;;9.30;nan;60672.38;4980398;28;20173;-70
2023/05/13 00:42:49;;;;;;;3.23;2.40;;;;;;;9.38;nan;60673.19;4975407;28;20270;-70
2023/05/13 00:45:15;;;;;;;4.03;2.20;;;;;;;9.31;nan;60864.09;4975219;28;20673;-70
2023/05/13 00:47:41;;;;;;;2.97;2.20;;;;;;;9.43;nan;60704.28;4990338;28;20187;-70
2023/05/13 00:50:08;;;;;;;2.37;2.17;;;;;;;9.25;nan;60663.66;4975341;28;20185;-71
2023/05/13 00:52:35;;;;;;;2.50;2.10;;;;;;;9.17;nan;60695.44;4975606;28;20186;-71
2023/05/13 00:55:00;;;;;;;2.67;2.20;;;;;;;9.49;nan;60708.47;4975596;28;20232;-68
2023/05/13 00:57:26;;;;;;;2.87;2.57;;;;;;;9.06;nan;60635.25;4975027;28;20209;-69
2023/05/13 00:59:51;;;;;;;2.67;2.37;;;;;;;9.44;nan;60705.41;4975115;28;20177;-69
2023/05/13 01:02:31;;;;;;;3.07;2.33;;;;;;;9.52;nan;60650.66;4989798;28;20236;-70
2023/05/13 01:05:14;;;;;;;3.33;2.70;;;;;;;9.20;nan;60686.09;4974604;28;20636;-70
2023/05/13 01:08:00;;;;;;;3.30;2.33;;;;;;;9.49;nan;60695.16;4974945;28;20290;-72
2023/05/13 01:10:40;;;;;;;5.30;2.17;;;;;;;9.56;nan;60685.75;4975022;28;20221;-71
2023/05/13 01:13:12;;;;;;;2.77;2.30;;;;;;;9.54;nan;60673.31;4974877;28;20184;-68
2023/05/13 01:15:48;;;;;;;3.43;2.30;;;;;;;9.50;nan;60681.56;4977172;28;20178;-70
2023/05/13 01:18:27;;;;;;;2.93;2.23;;;;;;;9.18;nan;60610.50;4959314;28;20219;-69
2023/05/13 01:20:53;;;;;;;2.63;2.37;;;;;;;9.12;nan;60621.03;4974532;28;20566;-72
2023/05/13 01:23:18;;;;;;;4.07;2.40;;;;;;;9.40;nan;60731.50;4974467;28;20185;-71
2023/05/13 01:25:44;;;;;;;3.17;2.40;;;;;;;9.18;nan;60630.31;4974526;28;20201;-70
2023/05/13 01:28:09;;;;;;;3.57;2.30;;;;;;;9.18;nan;60609.94;4974550;28;20173;-70
2023/05/13 01:30:36;;;;;;;2.80;2.50;;;;;;;8.84;nan;60611.09;4974380;28;20209;-70
2023/05/13 01:33:02;;;;;;;3.23;2.27;;;;;;;8.72;nan;60676.00;4974450;28;20188;-69
2023/05/13 01:35:30;;;;;;;3.57;2.40;;;;;;;9.25;nan;60676.41;4974434;28;20624;-70
2023/05/13 01:37:56;;;;;;;3.33;2.13;;;;;;;9.01;nan;60621.44;4974463;28;20196;-69
2023/05/13 01:40:22;;;;;;;3.40;2.40;;;;;;;9.20;nan;60587.25;4977525;28;20177;-69
2023/05/13 01:42:47;;;;;;;3.80;2.50;;;;;;;8.98;nan;60628.25;4974098;28;20177;-72
2023/05/13 01:45:13;;;;;;;3.37;2.67;;;;;;;9.40;nan;60619.34;4974001;28;20197;-70
2023/05/13 01:47:39;;;;;;;4.50;2.30;;;;;;;9.26;nan;60830.41;4974004;28;20252;-70
2023/05/13 01:50:05;;;;;;;4.50;2.50;;;;;;;9.02;nan;60801.41;4976086;28;20637;-69
2023/05/13 01:52:30;;;;;;;3.43;2.53;;;;;;;8.54;nan;60587.06;4972480;28;20209;-71
2023/05/13 01:54:55;;;;;;;3.73;3.13;;;;;;;8.83;nan;60584.53;4973700;28;20644;-69
2023/05/13 01:57:21;;;;;;;3.23;2.67;;;;;;;8.75;nan;60580.63;4973813;28;20166;-71
2023/05/13 01:59:46;;;;;;;5.13;2.50;;;;;;;8.97;nan;60535.44;4973600;28;20185;-69
2023/05/13 02:02:12;;;;;;;3.93;2.57;;;;;;;8.91;nan;60602.56;4973753;28;20567;-69
2023/05/13 02:04:37;;;;;;;4.20;2.73;;;;;;;8.80;nan;60583.72;4972306;28;20256;-70
2023/05/13 02:07:03;;;;;;;3.70;2.50;;;;;;;8.88;nan;60571.19;4973637;28;20196;-71
2023/05/13 02:09:28;;;;;;;7.63;2.70;;;;;;;8.92;nan;60586.44;4973379;28;20177;-71
2023/05/13 02:11:54;;;;;;;6.53;2.57;;;;;;;8.58;nan;60497.94;4973360;28;20221;-70
2023/05/13 02:14:19;;;;;;;7.17;2.30;;;;;;;8.57;nan;60517.19;4972837;28;20582;-70
2023/05/13 02:16:45;;;;;;;3.23;2.60;;;;;;;8.92;nan;60560.41;4973888;28;20172;-73
2023/05/13 02:19:10;;;;;;;3.87;2.97;;;;;;;8.61;nan;60496.22;4972969;28;20287;-69
2023/05/13 02:21:37;;;;;;;3.83;2.27;;;;;;;8.38;nan;60470.44;4973273;28;20204;-69
2023/05/13 02:24:02;;;;;;;3.47;2.57;;;;;;;8.59;nan;60600.88;4973512;28;20667;-69
2023/05/13 02:26:28;;;;;;;4.60;2.60;;;;;;;8.32;nan;60456.63;4976069;28;20212;-72
2023/05/13 02:28:53;;;;;;;3.73;2.63;;;;;;;8.76;nan;60523.22;4973886;28;20248;-70
2023/05/13 02:31:19;;;;;;;2.90;2.40;;;;;;;8.52;nan;60501.38;4973659;28;20191;-69
2023/05/13 02:33:44;;;;;;;5.00;3.30;;;;;;;8.74;nan;60500.03;4973919;28;20169;-71
2023/05/13 02:36:09;;;;;;;3.53;2.57;;;;;;;8.77;nan;60483.03;4973544;28;20265;-69
2023/05/13 02:38:35;;;;;;;2.87;2.50;;;;;;;8.65;nan;60475.22;4972041;28;20200;-69
2023/05/13 02:41:00;;;;;;;3.93;2.60;;;;;;;8.80;nan;60517.50;4978031;28;20192;-69
2023/05/13 02:43:26;;;;;;;3.47;2.60;;;;;;;8.46;nan;60453.97;4973538;28;20185;-70
2023/05/13 02:45:52;;;;;;;3.57;2.90;;;;;;;8.45;nan;60488.47;4973606;28;20208;-70
2023/05/13 02:48:17;;;;;;;6.57;3.00;;;;;;;8.40;nan;60452.88;4973535;28;20712;-72
2023/05/13 02:50:42;;;;;;;3.27;2.77;;;;;;;8.77;nan;60579.78;4973241;28;20256;-69
2023/05/13 02:53:08;;;;;;;3.07;2.33;;;;;;;8.65;nan;60510.88;4972894;28;20208;-69
2023/05/13 02:55:33;;;;;;;4.50;2.90;;;;;;;8.50;nan;60513.88;4973014;28;20200;-70
2023/05/13 02:57:58;;;;;;;3.60;2.70;;;;;;;9.05;nan;60488.94;4973286;28;20173;-71
2023/05/13 03:00:24;;;;;;;4.77;2.70;;;;;;;9.05;nan;60555.16;4973142;28;20165;-68
2023/05/13 03:02:50;;;;;;;3.57;2.73;;;;;;;9.06;nan;60499.69;4990032;28;20190;-71
2023/05/13 03:05:15;;;;;;;5.23;2.53;;;;;;;8.90;nan;60411.00;4973014;28;20303;-70
2023/05/13 03:07:40;;;;;;;8.97;3.20;;;;;;;9.26;nan;60471.13;4972742;28;20177;-70
2023/05/13 03:10:06;;;;;;;3.20;2.50;;;;;;;9.40;nan;60476.06;4972940;28;20223;-70
2023/05/13 03:12:32;;;;;;;2.53;2.33;;;;;;;9.24;nan;60451.06;4973185;28;20203;-69
2023/05/13 03:14:58;;;;;;;3.73;2.60;;;;;;;9.72;nan;60471.09;4972788;28;20273;-70
2023/05/13 03:17:24;;;;;;;5.53;3.00;;;;;;;9.72;nan;60481.88;4972774;28;20208;-69
2023/05/13 03:19:49;;;;;;;3.92;2.90;;;;;;;10.16;nan;60596.97;4972799;28;20181;-68
2023/05/13 03:22:15;;;;;;;3.58;2.67;;;;;;;10.19;nan;60632.94;4972791;28;20236;-72
2023/05/13 03:24:41;;;;;;;3.95;2.90;;;;;;;10.45;nan;60684.56;4972739;28;20664;-70
2023/05/13 03:27:07;;;;;;;3.30;2.60;;;;;;;10.17;nan;60633.25;4972918;28;20606;-69
2023/05/13 03:29:32;;;;;;;3.92;3.05;;;;;;;10.78;nan;60721.03;4973401;28;20240;-70
2023/05/13 03:31:57;;;;;;;7.82;2.65;;;;;;;10.95;nan;60729.94;4991770;28;20182;-70
2023/05/13 03:34:23;;;;;;;3.25;2.58;;;;;;;10.89;nan;60718.06;4977011;28;20173;-71
2023/05/13 03:36:48;;;;;;;6.85;3.13;;;;;;;10.45;nan;60684.56;4976364;28;20177;-68
2023/05/13 03:39:15;;;;;;;3.60;2.47;;;;;;;10.63;nan;60628.16;4978810;28;20178;-70
2023/05/13 03:41:40;;;;;;;4.45;2.60;;;;;;;10.81;nan;60640.69;4983164;28;20174;-71
2023/05/13 03:44:06;;;;;;;4.30;2.92;;;;;;;10.92;nan;60726.53;4976933;28;20541;-69
2023/05/13 03:46:32;;;;;;;3.55;2.65;;;;;;;11.19;nan;60746.66;4976369;28;20302;-70
2023/05/13 03:48:58;;;;;;;3.97;2.75;;;;;;;11.92;nan;60825.63;4976864;28;20192;-72
2023/05/13 03:51:23;;;;;;;4.18;2.95;;;;;;;12.93;nan;60906.25;4976595;28;20173;-72
2023/05/13 03:53:49;;;;;;;4.88;2.40;;;;;;;13.60;nan;61230.06;4975985;28;20174;-71
2023/05/13 03:56:14;;;;;;;4.07;2.80;;;;;;;15.66;nan;61468.13;4976376;28;20181;-69
2023/05/13 03:58:40;;;;;;;7.97;2.80;;;;;;;16.46;nan;61351.97;4975877;28;20174;-71
2023/05/13 04:01:08;;;;;;;3.65;2.50;;;;;;;16.81;nan;61385.84;4976504;28;20711;-70
2023/05/13 04:03:34;;;;;;;5.68;2.58;;;;;;;17.12;nan;61457.06;4975584;28;20166;-71
2023/05/13 04:05:59;;;;;;;4.20;2.67;;;;;;;17.44;nan;61492.72;4974804;28;20787;-70
2023/05/13 04:08:25;;;;;;;2.83;2.30;;;;;;;17.67;nan;61480.03;4976072;28;20545;-70
2023/05/13 04:10:50;;;;;;;3.50;2.55;;;;;;;16.98;nan;61412.25;4976114;28;20229;-70
2023/05/13 04:13:16;;;;;;;4.00;2.92;;;;;;;16.94;nan;61511.53;4975688;28;20261;-71
2023/05/13 04:15:41;;;;;;;4.80;2.90;;;;;;;16.74;nan;61396.53;4977762;28;20189;-69
2023/05/13 04:18:07;;;;;;;4.75;2.78;;;;;;;16.72;nan;61386.00;4975906;28;20272;-72
2023/05/13 04:20:32;;;;;;;3.85;2.72;;;;;;;17.25;nan;61463.44;4975644;28;20189;-69
2023/05/13 04:22:58;;;;;;;6.47;2.65;;;;;;;17.44;nan;61468.91;4975491;28;20185;-71
2023/05/13 04:25:23;;;;;;;6.03;3.35;;;;;;;17.61;nan;61473.25;4975587;28;20213;-71
2023/05/13 04:27:49;;;;;;;7.25;3.60;;;;;;;17.33;nan;61448.72;4990273;28;20273;-71
2023/05/13 04:30:14;;;;;;;5.97;3.20;;;;;;;17.11;nan;61512.13;4990456;28;20181;-71
2023/05/13 04:32:40;;;;;;;8.07;3.60;;;;;;;16.30;nan;61362.81;4975556;28;20181;-71
2023/05/13 04:35:06;;;;;;;9.43;4.03;;;;;;;15.80;nan;61273.34;4975467;28;20188;-70
2023/05/13 04:37:32;;;;;;;5.10;3.47;;;;;;;15.52;nan;61269.47;4990340;28;20683;-70
2023/05/13 04:39:57;;;;;;;8.23;3.35;;;;;;;16.05;nan;61329.38;4974526;28;20189;-71
2023/05/13 04:42:23;;;;;;;6.45;3.85;;;;;;;16.11;nan;61367.09;4978708;28;20315;-69
2023/05/13 04:44:48;;;;;;;10.30;4.03;;;;;;;15.85;nan;61307.34;4975404;28;20182;-70
2023/05/13 04:47:14;;;;;;;8.15;3.75;;;;;;;15.40;nan;61243.56;4975377;28;20169;-69
2023/05/13 04:49:39;;;;;;;7.00;3.83;;;;;;;15.44;nan;61325.34;4989506;28;20225;-69
2023/05/13 04:52:05;;;;;;;8.57;4.13;;;;;;;15.02;nan;61237.81;4975126;28;20199;-69
2023/05/13 04:54:31;;;;;;;7.63;3.90;;;;;;;15.31;nan;61303.47;4974367;28;20253;-69
2023/05/13 04:56:56;;;;;;;5.05;3.40;;;;;;;14.92;nan;61203.38;4975349;28;20170;-69
2023/05/13 04:59:21;;;;;;;5.63;3.58;;;;;;;15.32;nan;61237.13;4974267;28;20169;-71
2023/05/13 05:01:47;;;;;;;4.47;3.35;;;;;;;15.34;nan;61252.25;4974600;28;20170;-69
2023/05/13 05:04:13;;;;;;;4.70;3.35;;;;;;;16.19;nan;61365.81;4974970;28;20540;-70
2023/05/13 05:06:38;;;;;;;6.47;2.88;;;;;;;17.29;nan;61452.50;4976490;28;20251;-68
2023/05/13 05:09:04;;;;;;;5.10;3.10;;;;;;;17.43;nan;61506.53;4974729;28;20273;-70
2023/05/13 05:11:29;;;;;;;4.47;2.72;;;;;;;18.26;nan;61617.59;4975123;28;20353;-70
2023/05/13 05:13:55;;;;;;;6.22;3.22;;;;;;;18.18;nan;61494.72;4973373;28;20232;-72
2023/05/13 05:16:20;;;;;;;4.45;2.97;;;;;;;17.61;nan;61485.59;4974426;28;20165;-71
2023/05/13 05:18:46;;;;;;;5.28;2.75;;;;;;;17.37;nan;61458.97;4974326;28;20177;-73
2023/05/13 05:21:11;;;;;;;4.40;2.92;;;;;;;17.17;nan;61581.47;4973878;28;20200;-73
2023/05/13 05:23:37;;;;;;;4.72;3.10;;;;;;;16.94;nan;61371.59;4989390;28;20210;-71
2023/05/13 05:26:03;;;;;;;9.23;2.90;;;;;;;16.62;nan;61387.56;4974455;28;20291;-69
2023/05/13 05:28:29;;;;;;;5.93;2.90;;;;;;;16.79;nan;61411.97;4975035;28;20256;-69
2023/05/13 05:30:54;;;;;;;3.58;2.65;;;;;;;16.68;nan;61366.56;4974077;28;20212;-70
2023/05/13 05:33:20;;;;;;;6.20;2.80;;;;;;;16.54;nan;61355.88;4974040;28;20192;-69
2023/05/13 05:35:46;;;;;;;3.47;2.90;;;;;;;16.45;nan;61358.56;4973609;28;20193;-71
2023/05/13 05:38:12;;;;;;;4.75;3.08;;;;;;;15.94;nan;61303.50;4974130;28;20173;-71
2023/05/13 05:40:40;;;;;;;4.60;3.00;;;;;;;15.77;nan;61246.75;4974095;28;20308;-69
2023/05/13 05:43:06;;;;;;;3.45;2.70;;;;;;;15.55;nan;61270.84;4978954;28;20659;-70
2023/05/13 05:45:34;;;;;;;4.80;2.95;;;;;;;15.82;nan;61323.97;4972681;28;20198;-69
2023/05/13 05:47:59;;;;;;;3.95;2.63;;;;;;;15.92;nan;61312.09;4974442;28;20165;-71
2023/05/13 05:50:24;;;;;;;7.82;2.95;;;;;;;16.08;nan;61303.84;4974149;28;20671;-69
2023/05/13 05:52:50;;;;;;;4.70;2.60;;;;;;;16.20;nan;61328.28;4973975;28;20169;-70
2023/05/13 05:55:17;;;;;;;5.82;3.00;;;;;;;15.98;nan;61280.25;4973453;28;20241;-71
2023/05/13 05:57:45;;;;;;;4.43;3.08;;;;;;;15.53;nan;61229.41;4988988;28;20209;-71
2023/05/13 06:00:12;;;;;;;3.50;2.70;;;;;;;15.63;nan;61256.72;4973996;28;20173;-69
2023/05/13 06:02:37;;;;;;;5.63;3.60;;;;;;;15.31;nan;61264.88;4973530;28;20188;-70
2023/05/13 06:05:03;;;;;;;8.85;3.08;;;;;;;15.12;nan;61235.13;4973373;28;20205;-69
2023/05/13 06:07:29;;;;;;;6.20;3.10;;;;;;;14.82;nan;61168.38;4974358;28;20184;-70
2023/05/13 06:09:54;;;;;;;5.35;3.42;;;;;;;15.15;nan;61223.06;4973486;28;20636;-69
2023/05/13 06:12:21;;;;;;;5.18;2.90;;;;;;;15.34;nan;61259.97;4989166;28;20176;-70
2023/05/13 06:14:47;;;;;;;4.38;2.90;;;;;;;15.61;nan;61282.78;4973787;28;20174;-69
2023/05/13 06:17:13;;;;;;;6.18;3.30;;;;;;;15.88;nan;61279.25;4973523;28;20184;-73
2023/05/13 06:19:42;;;;;;;5.45;3.38;;;;;;;16.27;nan;61338.78;4988337;28;20724;-70
2023/05/13 06:22:11;;;;;;;5.30;3.20;;;;;;;16.73;nan;61415.50;4988734;28;20339;-70
2023/05/13 06:24:41;;;;;;;7.97;3.40;;;;;;;17.04;nan;61401.53;4973732;28;20166;-69
2023/05/13 06:27:09;;;;;;;5.10;3.10;;;;;;;17.47;nan;61506.47;4972404;28;20228;-70
2023/05/13 06:29:35;;;;;;;5.93;3.10;;;;;;;17.97;nan;61554.25;4973373;28;20177;-70
2023/05/13 06:32:06;;;;;;;5.75;2.85;;;;;;;17.95;nan;61511.19;4972734;28;20193;-70
2023/05/13 06:34:31;;;;;;;5.75;2.90;;;;;;;17.64;nan;61453.41;4988083;28;20558;-69
2023/05/13 06:36:56;;;;;;;5.88;3.50;;;;;;;17.40;nan;61588.91;4973639;28;20178;-70
2023/05/13 06:39:22;;;;;;;4.95;3.08;;;;;;;17.13;nan;61398.81;4990061;28;20266;-69
2023/05/13 06:41:47;;;;;;;5.78;3.38;;;;;;;17.18;nan;61461.28;4975988;28;20296;-68
2023/05/13 06:44:13;;;;;;;5.57;2.97;;;;;;;17.49;nan;61488.06;4973615;28;20331;-71
2023/05/13 06:46:38;;;;;;;5.28;3.42;;;;;;;18.21;nan;61514.22;4973208;28;20201;-71
2023/05/13 06:49:04;;;;;;;5.10;2.63;;;;;;;18.56;nan;61594.13;4973400;28;20185;-74
2023/05/13 06:51:31;;;;;;;5.32;3.38;;;;;;;18.35;nan;61545.03;4973408;28;20668;-74
2023/05/13 06:53:56;;;;;;;7.28;3.17;;;;;;;17.83;nan;61461.41;4972837;28;20282;-74
2023/05/13 06:56:22;;;;;;;10.52;3.38;;;;;;;17.93;nan;61488.25;4973289;28;20630;-73
2023/05/13 06:58:51;;;;;;;4.75;3.13;;;;;;;18.15;nan;61527.53;4988410;28;20188;-71
2023/05/13 07:01:17;;;;;;;5.40;3.63;;;;;;;17.50;nan;61486.59;4971477;28;20185;-70
2023/05/13 07:03:43;;;;;;;5.05;3.70;;;;;;;17.64;nan;61494.72;4987925;28;20185;-73
2023/05/13 07:06:08;;;;;;;5.32;3.30;;;;;;;17.13;nan;61429.22;4972889;28;20606;-70
2023/05/13 07:08:34;;;;;;;4.28;3.22;;;;;;;17.31;nan;61436.13;4987771;28;20195;-73
2023/05/13 07:10:59;;;;;;;5.00;3.28;;;;;;;17.67;nan;61500.72;4972372;28;20292;-72
2023/05/13 07:13:25;;;;;;;5.28;3.08;;;;;;;17.57;nan;61506.88;4987877;28;20212;-71
2023/05/13 07:15:51;;;;;;;5.28;3.85;;;;;;;17.56;nan;61488.25;4974369;28;20185;-73
2023/05/13 07:18:16;;;;;;;6.05;3.67;;;;;;;17.34;nan;61465.34;4972569;28;20228;-70
2023/05/13 07:20:42;;;;;;;5.35;3.22;;;;;;;17.57;nan;61473.31;4972186;28;20629;-71
2023/05/13 07:23:07;;;;;;;8.45;3.20;;;;;;;17.84;nan;61505.91;4972137;28;20178;-73
2023/05/13 07:25:32;;;;;;;5.82;3.80;;;;;;;17.67;nan;61513.63;4971785;28;20715;-70
2023/05/13 07:27:58;;;;;;;5.90;3.60;;;;;;;17.54;nan;61485.97;4972065;28;20178;-73
2023/05/13 07:30:23;;;;;;;4.50;3.45;;;;;;;17.73;nan;61498.63;4972710;28;20176;-73
2023/05/13 07:32:49;;;;;;;5.88;3.70;;;;;;;18.01;nan;61623.97;4972947;28;20188;-73
2023/05/13 07:35:15;;;;;;;7.40;4.57;;;;;;;17.97;nan;61507.72;4987395;28;20257;-74
2023/05/13 07:37:42;;;;;;;6.53;3.70;;;;;;;18.28;nan;61555.75;4973044;28;20200;-72
2023/05/13 07:40:08;;;;;;;4.22;3.42;;;;;;;17.66;nan;61491.28;4978864;28;20169;-74
2023/05/13 07:42:35;;;;;;;8.65;4.07;;;;;;;17.49;nan;61495.22;4987326;28;20188;-72
2023/05/13 07:45:01;;;;;;;5.50;3.60;;;;;;;17.08;nan;61589.34;4972872;28;20161;-73
2023/05/13 07:47:38;;;;;;;5.50;4.05;;;;;;;17.29;nan;61457.09;4973106;28;20232;-74
2023/05/13 07:50:06;;;;;;;6.13;3.75;;;;;;;16.22;nan;61394.44;4974588;28;20218;-71
2023/05/13 07:52:31;;;;;;;6.97;3.65;;;;;;;16.53;nan;61351.59;4970657;28;20216;-72
2023/05/13 07:54:57;;;;;;;6.07;3.95;;;;;;;16.45;nan;61383.78;4971778;28;20209;-72
2023/05/13 07:57:23;;;;;;;5.15;3.88;;;;;;;16.68;nan;61356.25;4972114;28;20562;-72
2023/05/13 07:59:48;;;;;;;7.13;4.25;;;;;;;17.27;nan;61465.16;4987478;28;20644;-72
2023/05/13 08:02:13;;;;;;;11.57;4.18;;;;;;;17.30;nan;61481.47;4987518;28;20292;-72
2023/05/13 08:04:39;;;;;;;6.07;4.22;;;;;;;17.89;nan;61465.06;4972671;28;20161;-75
2023/05/13 08:07:05;;;;;;;6.55;3.95;;;;;;;18.04;nan;61484.59;4987347;28;20221;-74
2023/05/13 08:09:30;;;;;;;6.55;3.05;;;;;;;17.94;nan;61520.38;4972987;28;20244;-75
2023/05/13 08:11:55;;;;;;;6.10;3.35;;;;;;;17.74;nan;61518.41;4970470;28;20361;-74
2023/05/13 08:14:21;;;;;;;5.70;3.70;;;;;;;17.10;nan;61381.97;4972468;28;20176;-74
2023/05/13 08:16:47;;;;;;;6.63;3.88;;;;;;;17.13;nan;61419.47;4972498;28;20188;-74
2023/05/13 08:19:13;;;;;;;5.88;3.85;;;;;;;16.95;nan;61372.72;4975458;28;20260;-75
2023/05/13 08:21:38;;;;;;;5.50;3.72;;;;;;;16.74;nan;61350.09;4975654;28;20181;-75
2023/05/13 08:24:05;;;;;;;6.88;3.95;;;;;;;16.39;nan;61467.25;4975503;28;20165;-73
2023/05/13 08:26:31;;;;;;;4.72;3.33;;;;;;;16.99;nan;61408.22;4977997;28;20209;-74
2023/05/13 08:28:56;;;;;;;7.32;3.58;;;;;;;16.96;nan;61410.56;4974197;28;20196;-76
2023/05/13 08:31:23;;;;;;;6.05;3.50;;;;;;;17.60;nan;61487.63;4975732;28;20182;-72
2023/05/13 08:33:50;;;;;;;5.38;3.63;;;;;;;17.72;nan;61479.41;4975361;28;20173;-66
2023/05/13 08:36:16;;;;;;;5.68;3.65;;;;;;;16.72;nan;61399.47;4975292;28;20181;-67
2023/05/13 08:38:42;;;;;;;5.75;3.42;;;;;;;17.16;nan;61450.69;4976631;28;20154;-67
2023/05/13 08:41:11;;;;;;;6.47;3.13;;;;;;;17.45;nan;61444.22;4976932;28;20181;-68
2023/05/13 08:43:38;;;;;;;5.32;3.78;;;;;;;17.77;nan;61524.38;4975163;28;20189;-67
2023/05/13 08:46:07;;;;;;;5.00;3.53;;;;;;;17.56;nan;61457.25;4974821;28;20696;-65
2023/05/13 08:48:34;;;;;;;6.22;3.75;;;;;;;17.20;nan;61432.53;4974693;28;20192;-67
2023/05/13 08:51:01;;;;;;;5.00;3.20;;;;;;;17.13;nan;61382.75;4974292;28;20680;-67
2023/05/13 08:53:27;;;;;;;5.25;3.55;;;;;;;17.83;nan;61551.88;4974389;28;20173;-67
2023/05/13 08:55:53;;;;;;;5.38;3.13;;;;;;;17.92;nan;61525.31;4974773;28;20201;-64
2023/05/13 08:58:19;;;;;;;4.15;2.80;;;;;;;18.77;nan;61589.47;4974730;28;20177;-68
2023/05/13 09:00:44;;;;;;;6.00;3.10;;;;;;;18.63;nan;61628.53;4974470;28;20267;-66
2023/05/13 09:03:11;;;;;;;4.85;3.35;;;;;;;18.80;nan;61611.00;4976669;28;20673;-67
2023/05/13 09:05:37;;;;;;;5.28;2.95;;;;;;;18.60;nan;61614.19;4974637;28;20287;-65
2023/05/13 09:08:07;;;;;;;5.93;3.17;;;;;;;18.85;nan;61860.00;4974593;28;20283;-67
2023/05/13 09:10:33;;;;;;;5.57;3.40;;;;;;;19.01;nan;61823.81;4974488;28;20221;-67
2023/05/13 09:13:00;;;;;;;4.78;2.72;;;;;;;19.16;nan;61635.69;4974452;28;20188;-68
2023/05/13 09:15:26;;;;;;;4.32;2.50;;;;;;;18.51;nan;61581.25;4974503;28;20171;-65
2023/05/13 09:17:58;;;;;;;4.93;2.80;;;;;;;17.97;nan;61539.31;4974526;28;20173;-70
2023/05/13 09:20:25;;;;;;;4.60;2.70;;;;;;;17.90;nan;61515.84;4973149;28;20188;-65
2023/05/13 09:22:51;;;;;;;4.25;2.60;;;;;;;18.59;nan;61528.22;4974376;28;20161;-66
2023/05/13 09:25:18;;;;;;;3.05;2.25;;;;;;;18.42;nan;61587.13;4973860;28;20201;-65
2023/05/13 09:27:49;;;;;;;3.78;2.83;;;;;;;18.22;nan;61567.03;4974067;28;20269;-65
2023/05/13 09:30:15;;;;;;;6.03;2.67;;;;;;;18.34;nan;61510.81;4974264;28;20189;-65
2023/05/13 09:32:42;;;;;;;4.50;2.67;;;;;;;18.35;nan;61548.16;4974428;28;20178;-69
2023/05/13 09:35:15;;;;;;;5.13;2.60;;;;;;;18.56;nan;61586.38;4974147;28;20185;-64
2023/05/13 09:37:50;;;;;;;2.50;2.15;;;;;;;18.51;nan;61599.34;4975035;28;20179;-65
2023/05/13 09:40:16;;;;;;;3.08;2.30;;;;;;;18.66;nan;61605.47;4974099;28;20252;-66
2023/05/13 09:42:45;;;;;;;4.20;2.20;;;;;;;18.89;nan;61590.13;4974007;28;20181;-66
2023/05/13 09:45:12;;;;;;;7.20;2.35;;;;;;;18.69;nan;61831.44;4972376;28;20683;-68
2023/05/13 09:47:38;;;;;;;4.38;2.20;;;;;;;18.72;nan;61630.41;4973543;28;20570;-63
2023/05/13 09:50:04;;;;;;;3.97;2.65;;;;;;;18.79;nan;61651.28;4973819;28;20173;-65
2023/05/13 09:52:31;;;;;;;3.15;2.38;;;;;;;18.67;nan;61581.31;4973854;28;20177;-66
2023/05/13 09:55:00;;;;;;;4.25;2.42;;;;;;;18.41;nan;61580.25;4973962;28;20185;-63
2023/05/13 09:57:28;;;;;;;2.80;2.30;;;;;;;18.83;nan;61598.84;4973183;28;20204;-68
2023/05/13 10:00:01;;;;;;;5.32;2.80;;;;;;;18.63;nan;61571.59;4973157;28;20181;-67
2023/05/13 10:02:27;;;;;;;5.57;3.20;;;;;;;18.93;nan;61590.03;4973019;28;20219;-66
2023/05/13 10:04:57;;;;;;;2.75;2.20;;;;;;;19.58;nan;61721.66;4973441;28;20170;-65
2023/05/13 10:07:24;;;;;;;3.38;2.80;;;;;;;19.58;nan;61677.59;4973569;28;20167;-66
2023/05/13 10:09:56;;;;;;;3.67;2.60;;;;;;;19.00;nan;61617.56;4973109;28;20666;-67
2023/05/13 10:12:24;;;;;;;5.18;2.60;;;;;;;19.45;nan;61723.03;4973243;28;20182;-66
2023/05/13 10:14:54;;;;;;;3.10;2.55;;;;;;;19.09;nan;61646.47;4973024;28;20253;-66
2023/05/13 10:17:22;;;;;;;6.60;2.80;;;;;;;19.34;nan;61663.88;4972567;28;20293;-65
2023/05/13 10:19:52;;;;;;;6.10;2.63;;;;;;;19.76;nan;61781.00;4973462;28;20183;-67
2023/05/13 10:22:29;;;;;;;3.05;2.30;;;;;;;19.03;nan;61626.13;4973371;28;20170;-66
2023/05/13 10:24:59;;;;;;;3.92;2.53;;;;;;;18.80;nan;61616.16;4973137;28;20522;-64
2023/05/13 10:27:31;;;;;;;3.25;2.05;;;;;;;18.71;nan;61556.78;4972698;28;20169;-66
2023/05/13 10:29:58;;;;;;;2.80;2.10;;;;;;;18.20;nan;61642.38;4972709;28;20177;-65
2023/05/13 10:32:26;;;;;;;4.50;2.40;;;;;;;18.76;nan;61624.56;4973093;28;20212;-65
2023/05/13 10:35:01;;;;;;;3.92;2.28;;;;;;;18.48;nan;61668.97;4987589;28;20185;-67
2023/05/13 10:37:36;;;;;;;3.25;2.28;;;;;;;19.19;nan;61597.66;4973087;28;20165;-64
2023/05/13 10:40:14;;;;;;;2.72;2.17;;;;;;;19.58;nan;61654.28;4972163;28;20169;-64
2023/05/13 10:42:41;;;;;;;2.92;2.30;;;;;;;19.47;nan;61706.59;4972294;28;20556;-65
2023/05/13 10:45:08;;;;;;;7.40;2.40;;;;;;;19.91;nan;61763.75;4972787;28;20173;-66
2023/05/13 10:47:34;;;;;;;6.22;2.30;;;;;;;20.02;nan;61721.78;4972805;28;20165;-65
2023/05/13 10:50:04;;;;;;;3.17;2.33;;;;;;;20.25;nan;61771.25;4987461;28;20191;-68
2023/05/13 10:52:46;;;;;;;3.05;2.55;;;;;;;20.25;nan;61768.66;4972621;28;20897;-67
2023/05/13 10:55:17;;;;;;;3.05;2.22;;;;;;;20.41;nan;61949.78;4972861;28;20193;-71
2023/05/13 10:58:02;;;;;;;2.80;2.00;;;;;;;19.85;nan;61734.16;4971528;28;20411;-66
2023/05/13 11:00:32;;;;;;;3.72;2.75;;;;;;;19.25;nan;61638.69;4972514;28;20169;-69
2023/05/13 11:03:28;;;;;;;5.68;2.45;;;;;;;19.14;nan;61644.38;4972878;28;20263;-67
2023/05/13 11:06:22;;;;;;;4.32;2.53;;;;;;;18.99;nan;61617.00;4972469;28;20208;-65
2023/05/13 11:08:50;;;;;;;3.33;2.28;;;;;;;19.13;nan;61638.06;4972725;28;20258;-70
2023/05/13 11:11:25;;;;;;;3.50;2.22;;;;;;;19.31;nan;61648.09;4972295;28;20307;-67
2023/05/13 11:14:16;;;;;;;2.58;2.05;;;;;;;19.90;nan;61723.72;4972202;28;20173;-68
2023/05/13 11:16:53;;;;;;;3.25;2.17;;;;;;;19.83;nan;61737.09;4972868;28;20174;-71
2023/05/13 11:19:27;;;;;;;2.92;2.00;;;;;;;19.77;nan;61693.97;4973241;28;20227;-68
2023/05/13 11:22:17;;;;;;;2.83;2.30;;;;;;;19.44;nan;61657.09;4972072;28;20247;-67
2023/05/13 11:25:02;;;;;;;4.88;2.40;;;;;;;19.21;nan;61722.25;4972241;28;20250;-71
2023/05/13 11:27:36;;;;;;;4.22;2.20;;;;;;;19.15;nan;61624.78;4972267;28;20184;-68
2023/05/13 11:30:06;;;;;;;2.35;1.95;;;;;;;19.24;nan;61681.59;4972360;28;20176;-65
2023/05/13 11:32:51;;;;;;;5.03;2.30;;;;;;;19.73;nan;61710.19;4971887;28;20177;-66
2023/05/13 11:35:28;;;;;;;2.40;2.10;;;;;;;19.85;nan;61692.69;4971860;28;20672;-67
2023/05/13 11:37:55;;;;;;;3.80;2.20;;;;;;;19.77;nan;61746.41;4974288;28;20170;-69
2023/05/13 11:40:25;;;;;;;4.82;2.30;;;;;;;20.09;nan;61716.75;4972296;28;20291;-68
2023/05/13 11:42:51;;;;;;;6.45;2.15;;;;;;;20.34;nan;61765.34;4972013;28;20229;-68
2023/05/13 11:45:18;;;;;;;2.55;2.00;;;;;;;20.64;nan;61735.06;4987536;28;20228;-69
2023/05/13 11:47:44;;;;;;;2.85;2.13;;;;;;;20.91;nan;61816.50;4972759;28;20184;-69
2023/05/13 11:50:23;;;;;;;3.53;2.20;;;;;;;20.85;nan;61802.47;4972216;28;20204;-64
2023/05/13 11:52:51;;;;;;;3.42;2.17;;;;;;;21.13;nan;61854.53;4975515;28;20161;-68
2023/05/13 11:55:31;;;;;;;4.35;2.22;;;;;;;21.14;nan;61920.59;4976221;28;20275;-66